createdAt,value
2022-10-19T00:01:23.025Z,84.64
2022-10-19T00:03:55.576Z,85.11
2022-10-19T00:06:26.399Z,85.49
2022-10-19T00:09:07.817Z,84.81
2022-10-19T00:11:39.374Z,85.06
2022-10-19T00:14:08.565Z,86.39
2022-10-19T00:16:38.761Z,83.90
2022-10-19T00:19:12.769Z,83.22
2022-10-19T00:21:40.891Z,84.04
2022-10-19T00:24:09.673Z,85.55
2022-10-19T00:26:38.131Z,86.34
2022-10-19T00:29:06.943Z,86.46
2022-10-19T00:31:35.129Z,82.54
2022-10-19T00:34:02.686Z,80.25
2022-10-19T00:36:37.484Z,80.34
2022-10-19T00:39:08.509Z,81.72
2022-10-19T00:41:37.785Z,82.30
2022-10-19T00:44:30.465Z,82.55
2022-10-19T00:47:05.475Z,83.12
2022-10-19T00:49:43.938Z,83.72
2022-10-19T00:52:18.681Z,83.06
2022-10-19T00:54:48.357Z,84.22
2022-10-19T00:57:16.367Z,84.74
2022-10-19T00:59:46.873Z,84.45
2022-10-19T01:02:14.850Z,83.85
2022-10-19T01:04:49.072Z,85.20
2022-10-19T01:07:17.512Z,86.60
2022-10-19T01:09:45.035Z,86.93
2022-10-19T01:12:23.334Z,87.19
2022-10-19T01:15:04.812Z,86.87
2022-10-19T01:18:09.288Z,88.11
2022-10-19T01:21:10.861Z,87.98
2022-10-19T01:23:55.729Z,88.51
2022-10-19T01:26:23.155Z,88.97
2022-10-19T01:29:58.353Z,88.52
2022-10-19T01:33:00.137Z,87.67
2022-10-19T01:36:00.615Z,87.45
2022-10-19T01:39:00.401Z,87.43
2022-10-19T01:42:16.879Z,86.32
2022-10-19T01:45:02.275Z,89.31
2022-10-19T01:47:51.702Z,92.16
2022-10-19T01:50:35.126Z,93.94
2022-10-19T01:53:06.196Z,95.10
2022-10-19T01:55:35.067Z,94.60
2022-10-19T01:58:09.543Z,95.01
2022-10-19T02:00:42.892Z,94.04
2022-10-19T02:03:12.643Z,92.83
2022-10-19T02:05:42.476Z,93.25
2022-10-19T02:08:29.289Z,92.50
2022-10-19T02:10:59.102Z,93.51
2022-10-19T02:13:29.245Z,93.27
2022-10-19T02:16:01.412Z,93.23
2022-10-19T02:18:37.949Z,92.34
2022-10-19T02:21:06.974Z,92.19
2022-10-19T02:23:34.851Z,91.81
2022-10-19T02:26:02.843Z,88.58
2022-10-19T02:28:32.029Z,88.70
2022-10-19T02:31:00.795Z,89.11
2022-10-19T02:33:30.025Z,88.65
2022-10-19T02:36:00.993Z,88.13
2022-10-19T02:38:28.948Z,88.08
2022-10-19T02:41:16.216Z,88.54
2022-10-19T02:43:49.416Z,88.84
2022-10-19T02:46:35.778Z,87.97
2022-10-19T02:49:06.774Z,88.35
2022-10-19T02:51:56.056Z,88.84
2022-10-19T02:54:25.032Z,87.88
2022-10-19T02:56:52.775Z,88.24
2022-10-19T02:59:20.328Z,88.44
2022-10-19T03:01:47.946Z,87.65
2022-10-19T03:04:15.839Z,88.22
2022-10-19T03:06:44.020Z,88.52
2022-10-19T03:09:11.534Z,88.27
2022-10-19T03:11:39.032Z,88.88
2022-10-19T03:14:06.476Z,89.00
2022-10-19T03:16:34.037Z,89.21
2022-10-19T03:19:01.450Z,90.48
2022-10-19T03:21:28.902Z,89.90
2022-10-19T03:23:56.468Z,89.57
2022-10-19T03:26:23.910Z,89.53
2022-10-19T03:28:51.465Z,90.82
2022-10-19T03:31:19.192Z,91.41
2022-10-19T03:33:46.649Z,90.53
2022-10-19T03:36:29.788Z,90.36
2022-10-19T03:39:01.309Z,91.44
2022-10-19T03:41:32.938Z,92.16
2022-10-19T03:46:28.268Z,85.42
2022-10-19T03:48:56.230Z,82.99
2022-10-19T03:51:27.082Z,85.56
2022-10-19T03:54:00.721Z,86.27
2022-10-19T03:56:30.429Z,86.55
2022-10-19T03:59:01.305Z,87.80
2022-10-19T04:01:41.156Z,86.26
2022-10-19T04:04:14.758Z,86.73
2022-10-19T04:06:46.351Z,86.26
2022-10-19T04:09:17.655Z,85.46
2022-10-19T04:11:45.531Z,86.12
2022-10-19T04:14:26.922Z,86.97
2022-10-19T04:17:04.189Z,86.28
2022-10-19T04:19:32.230Z,85.92
2022-10-19T04:22:00.039Z,87.77
2022-10-19T04:24:27.874Z,88.06
2022-10-19T04:26:59.241Z,89.55
2022-10-19T04:29:30.010Z,91.61
2022-10-19T04:31:58.948Z,90.96
2022-10-19T04:34:26.469Z,91.39
2022-10-19T04:36:54.727Z,91.35
2022-10-19T04:39:25.075Z,91.80
2022-10-19T04:41:52.513Z,91.12
2022-10-19T04:44:20.944Z,92.17
2022-10-19T04:46:48.461Z,92.68
2022-10-19T04:49:18.023Z,93.73
2022-10-19T04:51:47.868Z,94.35
2022-10-19T04:54:15.317Z,95.43
2022-10-19T04:56:42.764Z,95.92
2022-10-19T04:59:10.754Z,95.39
2022-10-19T05:01:40.418Z,94.44
2022-10-19T05:04:11.534Z,94.67
2022-10-19T05:06:39.281Z,93.79
2022-10-19T05:09:07.372Z,91.23
2022-10-19T05:11:35.118Z,90.45
2022-10-19T05:14:02.543Z,91.32
2022-10-19T05:16:30.041Z,92.48
2022-10-19T05:18:58.982Z,92.14
2022-10-19T05:21:29.021Z,90.05
2022-10-19T05:23:57.970Z,90.75
2022-10-19T05:26:27.952Z,90.46
2022-10-19T05:29:04.585Z,90.54
2022-10-19T05:31:36.876Z,89.46
2022-10-19T05:34:05.502Z,88.72
2022-10-19T05:36:39.187Z,88.16
2022-10-19T05:39:14.293Z,89.05
2022-10-19T05:41:44.892Z,89.07
2022-10-19T05:44:30.561Z,88.72
2022-10-19T05:46:58.017Z,88.05
2022-10-19T05:49:25.556Z,87.26
2022-10-19T05:51:53.087Z,86.61
2022-10-19T05:54:23.738Z,86.79
2022-10-19T05:56:53.852Z,86.15
2022-10-19T05:59:24.459Z,86.01
2022-10-19T06:01:52.050Z,85.30
2022-10-19T06:04:19.549Z,82.75
2022-10-19T06:06:47.229Z,83.71
2022-10-19T06:09:15.368Z,83.68
2022-10-19T06:11:43.728Z,83.78
2022-10-19T06:14:16.087Z,83.16
2022-10-19T06:16:45.924Z,83.25
2022-10-19T06:19:13.903Z,82.73
2022-10-19T06:21:43.409Z,83.16
2022-10-19T06:24:13.399Z,82.03
2022-10-19T06:26:41.070Z,82.55
2022-10-19T06:29:09.723Z,83.92
2022-10-19T06:31:38.412Z,83.08
2022-10-19T06:34:06.384Z,81.68
2022-10-19T06:36:34.221Z,82.29
2022-10-19T06:39:02.107Z,83.03
2022-10-19T06:41:31.303Z,82.67
2022-10-19T06:44:12.335Z,81.79
2022-10-19T06:46:39.865Z,81.15
2022-10-19T06:49:07.353Z,81.67
2022-10-19T06:51:34.903Z,82.19
2022-10-19T06:54:02.570Z,81.69
2022-10-19T06:56:32.143Z,79.94
2022-10-19T06:58:59.885Z,79.52
2022-10-19T07:01:28.098Z,78.34
2022-10-19T07:03:55.856Z,76.04
2022-10-19T07:06:28.161Z,75.80
2022-10-19T07:08:55.618Z,75.52
2022-10-19T07:11:23.280Z,73.65
2022-10-19T07:13:52.259Z,71.40
2022-10-19T07:16:21.287Z,70.49
2022-10-19T07:18:52.016Z,71.55
2022-10-19T07:21:23.062Z,69.02
2022-10-19T07:23:50.921Z,65.93
2022-10-19T07:26:29.934Z,64.43
2022-10-19T07:28:58.295Z,61.18
2022-10-19T07:31:27.707Z,62.85
2022-10-19T07:34:04.314Z,60.57
2022-10-19T07:36:37.086Z,55.33
2022-10-19T07:39:08.497Z,55.17
2022-10-19T07:41:36.015Z,54.80
2022-10-19T07:44:07.464Z,54.77
2022-10-19T07:46:38.704Z,54.19
2022-10-19T07:49:12.121Z,54.57
2022-10-19T07:51:41.455Z,53.01
2022-10-19T07:54:09.748Z,50.81
2022-10-19T07:56:38.576Z,51.92
2022-10-19T07:59:06.532Z,51.07
2022-10-19T08:01:41.222Z,51.46
2022-10-19T08:06:56.651Z,47.84
2022-10-19T08:12:15.381Z,47.76
2022-10-19T08:14:43.424Z,46.15
2022-10-19T08:17:17.716Z,47.45
2022-10-19T08:19:47.171Z,46.52
2022-10-19T08:22:14.842Z,45.98
2022-10-19T08:24:42.399Z,48.46
2022-10-19T08:27:14.399Z,45.79
2022-10-19T08:29:41.879Z,46.56
2022-10-19T08:32:10.432Z,45.31
2022-10-19T08:34:37.927Z,43.23
2022-10-19T08:37:14.669Z,43.21
2022-10-19T08:39:53.463Z,43.34
2022-10-19T08:42:43.834Z,44.55
2022-10-19T08:45:37.437Z,40.96
2022-10-19T08:48:27.738Z,42.06
2022-10-19T08:50:56.888Z,40.58
2022-10-19T08:53:43.032Z,40.82
2022-10-19T08:56:49.261Z,40.07
2022-10-19T08:59:35.833Z,39.65
2022-10-19T09:02:19.195Z,40.41
2022-10-19T09:04:55.813Z,40.41
2022-10-19T09:07:46.046Z,39.55
2022-10-19T09:10:19.189Z,40.02
2022-10-19T09:12:58.567Z,36.13
2022-10-19T09:15:35.273Z,37.13
2022-10-19T09:18:03.313Z,37.25
2022-10-19T09:20:39.789Z,36.62
2022-10-19T09:23:32.175Z,37.04
2022-10-19T09:25:59.755Z,37.45
2022-10-19T09:28:45.825Z,34.17
2022-10-19T09:31:42.844Z,35.32
2022-10-19T09:34:35.887Z,36.73
2022-10-19T09:37:04.619Z,35.44
2022-10-19T09:39:32.769Z,36.73
2022-10-19T09:42:05.562Z,36.12
2022-10-19T09:44:33.554Z,33.62
2022-10-19T09:47:25.477Z,34.58
2022-10-19T09:50:26.061Z,34.14
2022-10-19T09:52:57.682Z,34.31
2022-10-19T09:55:39.241Z,34.68
2022-10-19T09:58:20.518Z,33.22
2022-10-19T10:00:57.812Z,31.24
2022-10-19T10:03:39.416Z,32.59
2022-10-19T10:06:14.193Z,31.54
2022-10-19T10:08:58.058Z,32.03
2022-10-19T10:11:38.946Z,31.45
2022-10-19T10:14:28.060Z,30.22
2022-10-19T10:17:03.496Z,30.05
2022-10-19T10:19:33.665Z,29.83
2022-10-19T10:22:01.265Z,30.15
2022-10-19T10:24:34.233Z,30.17
2022-10-19T10:27:05.259Z,30.28
2022-10-19T10:29:37.433Z,28.42
2022-10-19T10:32:40.135Z,28.32
2022-10-19T10:35:31.742Z,30.04
2022-10-19T10:38:35.723Z,30.93
2022-10-19T10:41:18.852Z,31.51
2022-10-19T10:44:06.853Z,30.12
2022-10-19T10:46:41.511Z,30.14
2022-10-19T10:49:23.639Z,30.81
2022-10-19T10:52:15.449Z,29.16
2022-10-19T10:55:10.064Z,28.41
2022-10-19T10:57:44.226Z,29.42
2022-10-19T11:00:22.128Z,28.81
2022-10-19T11:03:14.763Z,28.27
2022-10-19T11:05:53.736Z,28.31
2022-10-19T11:08:48.259Z,27.66
2022-10-19T11:11:21.950Z,27.94
2022-10-19T11:14:25.486Z,27.57
2022-10-19T11:16:56.907Z,27.59
2022-10-19T11:19:36.316Z,27.73
2022-10-19T11:22:35.876Z,26.61
2022-10-19T11:25:23.598Z,26.50
2022-10-19T11:28:05.248Z,26.73
2022-10-19T11:31:06.867Z,25.52
2022-10-19T11:34:08.353Z,26.02
2022-10-19T11:37:00.976Z,25.91
2022-10-19T11:40:05.634Z,25.64
2022-10-19T11:43:42.900Z,25.44
2022-10-19T11:46:35.211Z,23.73
2022-10-19T11:49:38.793Z,24.20
2022-10-19T11:52:17.144Z,24.20
2022-10-19T11:54:50.346Z,24.39
2022-10-19T11:57:24.509Z,23.98
2022-10-19T12:00:15.700Z,23.63
2022-10-19T12:03:37.343Z,22.79
2022-10-19T12:06:30.142Z,23.58
2022-10-19T12:09:35.471Z,23.07
2022-10-19T12:12:33.512Z,22.26
2022-10-19T12:15:35.339Z,21.90
2022-10-19T12:21:11.772Z,20.67
2022-10-19T12:23:43.948Z,21.26
2022-10-19T12:29:00.782Z,21.36
2022-10-19T12:31:30.285Z,20.39
2022-10-19T12:34:20.577Z,20.67
2022-10-19T12:37:10.388Z,21.01
2022-10-19T12:39:46.740Z,20.54
2022-10-19T12:42:26.703Z,20.03
2022-10-19T12:45:38.464Z,20.04
2022-10-19T12:48:24.514Z,19.73
2022-10-19T12:50:56.751Z,18.91
2022-10-19T12:53:36.111Z,18.25
2022-10-19T12:56:16.618Z,18.60
2022-10-19T12:59:01.517Z,17.98
2022-10-19T13:01:34.901Z,18.82
2022-10-19T13:04:15.872Z,18.93
2022-10-19T13:06:56.313Z,17.83
2022-10-19T13:09:39.860Z,18.68
2022-10-19T13:12:19.732Z,17.72
2022-10-19T13:15:01.953Z,17.37
2022-10-19T13:17:41.165Z,17.41
2022-10-19T13:20:14.777Z,17.11
2022-10-19T13:23:13.227Z,16.74
2022-10-19T13:25:42.334Z,16.40
2022-10-19T13:28:10.003Z,16.48
2022-10-19T13:30:37.375Z,15.85
2022-10-19T13:33:29.595Z,15.39
2022-10-19T13:35:59.858Z,15.44
2022-10-19T13:38:52.896Z,15.80
2022-10-19T13:41:46.413Z,15.97
2022-10-19T13:44:15.195Z,15.77
2022-10-19T13:47:20.858Z,14.42
2022-10-19T13:50:03.417Z,14.36
2022-10-19T13:52:42.900Z,14.50
2022-10-19T13:55:28.624Z,14.18
2022-10-19T13:58:51.661Z,14.21
2022-10-19T14:01:27.468Z,14.58
2022-10-19T14:04:35.805Z,14.62
2022-10-19T14:07:21.466Z,14.50
2022-10-19T14:10:25.176Z,14.41
2022-10-19T14:13:02.048Z,14.08
2022-10-19T14:15:33.628Z,14.49
2022-10-19T14:18:03.814Z,14.98
2022-10-19T14:20:38.589Z,14.96
2022-10-19T14:23:28.233Z,15.33
2022-10-19T14:26:17.773Z,15.34
2022-10-19T14:28:55.242Z,14.94
2022-10-19T14:31:34.939Z,16.17
2022-10-19T14:34:08.781Z,16.12
2022-10-19T14:36:49.837Z,16.27
2022-10-19T14:39:43.148Z,16.42
2022-10-19T14:42:11.637Z,16.55
2022-10-19T14:44:44.093Z,15.69
2022-10-19T14:47:24.013Z,17.04
2022-10-19T14:49:52.062Z,17.08
2022-10-19T14:52:32.900Z,17.34
2022-10-19T14:55:12.605Z,17.48
2022-10-19T14:57:46.572Z,18.88
2022-10-19T15:00:21.755Z,20.43
2022-10-19T15:03:02.272Z,21.92
2022-10-19T15:05:40.894Z,23.80
2022-10-19T15:08:18.738Z,24.66
2022-10-19T15:10:48.744Z,25.88
2022-10-19T15:13:43.193Z,26.42
2022-10-19T15:16:31.913Z,26.53
2022-10-19T15:19:11.220Z,27.39
2022-10-19T15:21:41.497Z,28.40
2022-10-19T15:24:26.374Z,29.11
2022-10-19T15:27:06.652Z,28.62
2022-10-19T15:29:36.513Z,30.34
2022-10-19T15:32:26.420Z,30.79
2022-10-19T15:34:53.958Z,30.90
2022-10-19T15:37:23.771Z,31.15
2022-10-19T15:39:53.274Z,32.12
2022-10-19T15:42:40.885Z,32.76
2022-10-19T15:45:31.560Z,33.80
2022-10-19T15:48:13.117Z,34.54
2022-10-19T15:50:48.097Z,33.30
2022-10-19T15:53:19.850Z,34.52
2022-10-19T15:55:48.044Z,35.18
2022-10-19T15:58:16.989Z,36.06
2022-10-19T16:00:46.243Z,36.17
2022-10-19T16:03:14.119Z,36.47
2022-10-19T16:05:42.248Z,36.94
2022-10-19T16:08:12.521Z,37.92
2022-10-19T16:10:41.324Z,37.24
2022-10-19T16:13:10.269Z,36.43
2022-10-19T16:15:37.985Z,36.07
2022-10-19T16:18:05.919Z,36.11
2022-10-19T16:20:34.112Z,36.04
2022-10-19T16:23:01.596Z,35.67
2022-10-19T16:25:29.092Z,36.24
2022-10-19T16:27:56.579Z,36.04
2022-10-19T16:30:24.490Z,35.90
2022-10-19T16:32:52.284Z,36.36
2022-10-19T16:35:19.752Z,35.80
2022-10-19T16:37:48.320Z,36.52
2022-10-19T16:40:20.445Z,36.51
2022-10-19T16:42:48.022Z,37.34
2022-10-19T16:45:15.606Z,35.73
2022-10-19T16:47:43.102Z,37.19
2022-10-19T16:50:12.246Z,37.89
2022-10-19T16:52:40.867Z,37.98
2022-10-19T16:55:08.795Z,38.36
2022-10-19T16:57:38.809Z,38.80
2022-10-19T17:00:10.672Z,40.06
2022-10-19T17:02:41.830Z,38.52
2022-10-19T17:05:11.921Z,39.14
2022-10-19T17:07:39.440Z,39.56
2022-10-19T17:10:07.497Z,39.63
2022-10-19T17:12:35.160Z,39.98
2022-10-19T17:15:37.188Z,40.05
2022-10-19T17:17:50.640Z,40.98
2022-10-19T17:20:18.698Z,40.88
2022-10-19T17:22:49.186Z,40.89
2022-10-19T17:25:20.222Z,38.95
2022-10-19T17:27:53.106Z,39.72
2022-10-19T17:30:21.571Z,41.96
2022-10-19T17:32:50.706Z,43.23
2022-10-19T17:35:18.391Z,42.66
2022-10-19T17:37:49.955Z,42.47
2022-10-19T17:40:21.471Z,42.75
2022-10-19T17:42:49.658Z,44.15
2022-10-19T17:45:18.466Z,43.99
2022-10-19T17:47:45.994Z,44.57
2022-10-19T17:50:13.439Z,45.52
2022-10-19T17:52:41.070Z,45.98
2022-10-19T17:55:13.123Z,46.14
2022-10-19T17:57:41.504Z,46.43
2022-10-19T18:00:10.787Z,46.32
2022-10-19T18:02:48.251Z,46.06
2022-10-19T18:05:17.146Z,46.83
2022-10-19T18:07:45.034Z,47.32
2022-10-19T18:10:14.170Z,48.74
2022-10-19T18:12:45.290Z,47.47
2022-10-19T18:15:35.262Z,47.69
2022-10-19T18:18:08.279Z,47.93
2022-10-19T18:20:41.778Z,48.27
2022-10-19T18:23:11.733Z,49.59
2022-10-19T18:25:53.456Z,49.74
2022-10-19T18:28:27.268Z,50.53
2022-10-19T18:30:54.867Z,51.07
2022-10-19T18:33:23.744Z,50.04
2022-10-19T18:35:51.721Z,50.26
2022-10-19T18:38:23.445Z,50.45
2022-10-19T18:40:55.780Z,51.16
2022-10-19T18:43:28.421Z,51.97
2022-10-19T18:46:01.384Z,52.03
2022-10-19T18:48:34.106Z,51.56
2022-10-19T18:51:06.968Z,51.98
2022-10-19T18:53:38.156Z,52.48
2022-10-19T18:56:12.649Z,52.46
2022-10-19T18:58:43.478Z,52.58
2022-10-19T19:01:26.557Z,52.99
2022-10-19T19:04:04.280Z,52.27
2022-10-19T19:06:36.010Z,54.01
2022-10-19T19:09:08.971Z,53.68
2022-10-19T19:11:40.906Z,52.96
2022-10-19T19:14:22.482Z,52.93
2022-10-19T19:16:50.213Z,52.79
2022-10-19T19:19:20.007Z,53.42
2022-10-19T19:21:49.040Z,52.46
2022-10-19T19:24:22.278Z,54.12
2022-10-19T19:26:53.199Z,55.54
2022-10-19T19:29:22.453Z,56.69
2022-10-19T19:31:51.315Z,55.88
2022-10-19T19:34:19.144Z,56.81
2022-10-19T19:36:48.348Z,56.84
2022-10-19T19:39:20.212Z,56.39
2022-10-19T19:42:01.199Z,56.62
2022-10-19T19:44:37.469Z,56.33
2022-10-19T19:47:07.018Z,55.07
2022-10-19T19:49:40.798Z,55.67
2022-10-19T19:52:12.561Z,56.55
2022-10-19T19:54:41.343Z,55.16
2022-10-19T19:57:10.126Z,55.75
2022-10-19T19:59:39.069Z,55.79
2022-10-19T20:02:06.733Z,55.66
2022-10-19T20:04:34.310Z,56.43
2022-10-19T20:07:02.365Z,56.14
2022-10-19T20:09:30.245Z,55.93
2022-10-19T20:11:57.993Z,56.99
2022-10-19T20:14:27.617Z,57.51
2022-10-19T20:16:55.157Z,57.87
2022-10-19T20:19:22.687Z,57.71
2022-10-19T20:21:50.246Z,58.00
2022-10-19T20:24:17.755Z,58.71
2022-10-19T20:26:45.184Z,58.82
2022-10-19T20:29:13.272Z,59.13
2022-10-19T20:31:41.341Z,59.19
2022-10-19T20:34:13.968Z,59.91
2022-10-19T20:36:42.253Z,60.26
2022-10-19T20:39:10.828Z,61.05
2022-10-19T20:41:38.346Z,60.81
2022-10-19T20:44:06.068Z,60.01
2022-10-19T20:46:33.745Z,60.99
2022-10-19T20:49:02.761Z,61.47
2022-10-19T20:51:36.980Z,62.54
2022-10-19T20:54:07.982Z,60.36
2022-10-19T20:56:38.205Z,60.00
2022-10-19T20:59:18.490Z,62.19
2022-10-19T21:01:49.773Z,60.87
2022-10-19T21:04:17.533Z,59.38
2022-10-19T21:06:50.394Z,60.90
2022-10-19T21:09:21.607Z,60.94
2022-10-19T21:11:52.057Z,60.81
2022-10-19T21:14:28.362Z,63.49
2022-10-19T21:17:00.569Z,62.51
2022-10-19T21:19:30.910Z,65.08
2022-10-19T21:22:02.175Z,65.51
2022-10-19T21:24:36.051Z,64.68
2022-10-19T21:27:07.495Z,65.03
2022-10-19T21:29:35.936Z,64.57
2022-10-19T21:32:04.015Z,65.16
2022-10-19T21:34:32.442Z,65.20
2022-10-19T21:37:00.326Z,65.67
2022-10-19T21:39:29.181Z,67.50
2022-10-19T21:41:57.111Z,67.77
2022-10-19T21:44:24.679Z,68.00
2022-10-19T21:46:52.216Z,68.56
2022-10-19T21:49:19.844Z,68.27
2022-10-19T21:51:51.759Z,68.61
2022-10-19T21:54:24.776Z,68.25
2022-10-19T21:56:53.446Z,68.23
2022-10-19T21:59:21.594Z,68.18
2022-10-19T22:01:49.355Z,66.94
2022-10-19T22:04:18.518Z,66.63
2022-10-19T22:06:46.815Z,66.50
2022-10-19T22:09:20.415Z,66.74
2022-10-19T22:11:48.479Z,66.77
2022-10-19T22:14:17.654Z,66.50
2022-10-19T22:16:45.815Z,67.07
2022-10-19T22:19:14.003Z,66.92
2022-10-19T22:21:41.597Z,66.60
2022-10-19T22:24:14.138Z,66.07
2022-10-19T22:26:46.357Z,66.05
2022-10-19T22:29:17.478Z,65.53
2022-10-19T22:31:45.530Z,65.62
2022-10-19T22:34:16.382Z,66.91
2022-10-19T22:36:44.706Z,66.75
2022-10-19T22:39:12.651Z,66.26
2022-10-19T22:41:40.213Z,67.39
2022-10-19T22:44:07.759Z,67.65
2022-10-19T22:46:35.344Z,67.67
2022-10-19T22:49:03.055Z,68.32
2022-10-19T22:51:30.565Z,68.91
2022-10-19T22:53:58.042Z,68.78
2022-10-19T22:56:25.550Z,69.55
2022-10-19T22:58:53.022Z,69.39
2022-10-19T23:01:20.586Z,69.78
2022-10-19T23:03:48.000Z,68.83
2022-10-19T23:06:16.136Z,68.68
2022-10-19T23:08:45.066Z,69.20
2022-10-19T23:11:13.149Z,69.81
2022-10-19T23:13:41.085Z,69.88
2022-10-19T23:16:09.357Z,70.10
2022-10-19T23:18:39.767Z,70.61
2022-10-19T23:21:11.502Z,69.60
2022-10-19T23:23:39.938Z,70.38
2022-10-19T23:26:20.298Z,71.66
2022-10-19T23:28:51.450Z,70.19
2022-10-19T23:31:28.441Z,70.56
2022-10-19T23:33:56.004Z,70.87
2022-10-19T23:36:27.357Z,70.53
2022-10-19T23:38:58.923Z,70.81
2022-10-19T23:41:26.921Z,70.44
2022-10-19T23:43:54.406Z,71.08
2022-10-19T23:46:21.966Z,71.70
2022-10-19T23:48:49.572Z,71.49
2022-10-19T23:51:20.273Z,71.16
2022-10-19T23:53:50.122Z,71.72
2022-10-19T23:56:23.178Z,72.02
2022-10-19T23:58:52.154Z,71.79
